sensor_id;sensor_type;location;lat;lon;timestamp;pressure;altitude;pressure_sealevel;temperature;humidity
50650;BME280;36621;60.058;30.346;2023-04-24T00:00:19;100427.03;;;11.11;49.33
50650;BME280;36621;60.058;30.346;2023-04-24T00:07:52;100431.38;;;11.18;49.33
50650;BME280;36621;60.058;30.346;2023-04-24T00:15:24;100422.94;;;11.14;49.12
50650;BME280;36621;60.058;30.346;2023-04-24T00:22:57;100428.34;;;11.19;49.37
50650;BME280;36621;60.058;30.346;2023-04-24T00:30:29;100410.25;;;11.28;49.10
50650;BME280;36621;60.058;30.346;2023-04-24T00:38:02;100410.56;;;11.27;49.25
50650;BME280;36621;60.058;30.346;2023-04-24T00:45:34;100379.09;;;10.95;49.45
50650;BME280;36621;60.058;30.346;2023-04-24T00:53:08;100398.91;;;11.11;49.98
50650;BME280;36621;60.058;30.346;2023-04-24T01:00:39;100398.50;;;10.88;49.85
50650;BME280;36621;60.058;30.346;2023-04-24T01:08:13;100369.13;;;10.70;50.28
50650;BME280;36621;60.058;30.346;2023-04-24T01:15:46;100372.19;;;10.63;50.84
50650;BME280;36621;60.058;30.346;2023-04-24T01:23:19;100391.75;;;10.81;50.26
50650;BME280;36621;60.058;30.346;2023-04-24T01:30:52;100328.94;;;10.36;50.69
50650;BME280;36621;60.058;30.346;2023-04-24T01:38:29;100378.59;;;10.88;50.66
50650;BME280;36621;60.058;30.346;2023-04-24T01:46:01;100336.00;;;10.82;50.20
50650;BME280;36621;60.058;30.346;2023-04-24T01:53:34;100310.22;;;10.98;49.85
50650;BME280;36621;60.058;30.346;2023-04-24T02:01:07;100358.16;;;11.49;49.23
50650;BME280;36621;60.058;30.346;2023-04-24T02:08:40;100273.94;;;11.22;48.63
50650;BME280;36621;60.058;30.346;2023-04-24T02:16:12;100341.63;;;11.89;48.35
50650;BME280;36621;60.058;30.346;2023-04-24T02:24:05;100332.34;;;12.09;48.47
50650;BME280;36621;60.058;30.346;2023-04-24T02:31:37;100339.34;;;12.20;48.00
50650;BME280;36621;60.058;30.346;2023-04-24T02:39:10;100333.22;;;12.28;48.52
50650;BME280;36621;60.058;30.346;2023-04-24T02:46:43;100329.25;;;12.40;48.06
50650;BME280;36621;60.058;30.346;2023-04-24T02:54:16;100327.09;;;12.56;47.93
50650;BME280;36621;60.058;30.346;2023-04-24T03:01:48;100304.94;;;12.90;47.18
50650;BME280;36621;60.058;30.346;2023-04-24T03:09:21;100315.63;;;14.50;44.02
50650;BME280;36621;60.058;30.346;2023-04-24T03:16:53;100272.38;;;14.55;43.39
50650;BME280;36621;60.058;30.346;2023-04-24T03:24:26;100320.13;;;15.05;42.95
50650;BME280;36621;60.058;30.346;2023-04-24T03:32:00;100307.97;;;17.10;38.18
50650;BME280;36621;60.058;30.346;2023-04-24T03:39:34;100311.75;;;17.44;37.37
50650;BME280;36621;60.058;30.346;2023-04-24T03:47:07;100274.28;;;15.86;39.78
50650;BME280;36621;60.058;30.346;2023-04-24T03:54:41;100275.94;;;15.95;40.79
50650;BME280;36621;60.058;30.346;2023-04-24T04:02:13;100300.41;;;17.37;37.35
50650;BME280;36621;60.058;30.346;2023-04-24T04:09:46;100312.50;;;16.80;37.85
50650;BME280;36621;60.058;30.346;2023-04-24T04:17:18;100302.41;;;17.28;37.24
50650;BME280;36621;60.058;30.346;2023-04-24T04:24:52;100305.16;;;18.14;35.81
50650;BME280;36621;60.058;30.346;2023-04-24T04:32:27;100295.19;;;18.43;34.55
50650;BME280;36621;60.058;30.346;2023-04-24T04:40:01;100295.56;;;18.11;35.53
50650;BME280;36621;60.058;30.346;2023-04-24T04:47:43;100293.78;;;19.46;32.56
50650;BME280;36621;60.058;30.346;2023-04-24T04:55:16;100295.97;;;22.71;28.04
50650;BME280;36621;60.058;30.346;2023-04-24T05:03:11;100284.16;;;24.13;25.44
50650;BME280;36621;60.058;30.346;2023-04-24T05:10:44;100286.03;;;26.38;22.66
50650;BME280;36621;60.058;30.346;2023-04-24T05:18:17;100282.00;;;27.92;20.41
50650;BME280;36621;60.058;30.346;2023-04-24T05:25:51;100269.53;;;29.14;18.76
50650;BME280;36621;60.058;30.346;2023-04-24T05:33:24;100252.34;;;30.03;18.02
50650;BME280;36621;60.058;30.346;2023-04-24T05:40:57;100237.63;;;29.88;17.90
50650;BME280;36621;60.058;30.346;2023-04-24T05:48:32;100224.06;;;28.59;19.39
50650;BME280;36621;60.058;30.346;2023-04-24T16:28:21;100383.53;;;16.83;47.83
50650;BME280;36621;60.058;30.346;2023-04-24T16:35:54;100397.31;;;16.74;47.71
50650;BME280;36621;60.058;30.346;2023-04-24T16:43:30;100412.06;;;16.87;47.86
50650;BME280;36621;60.058;30.346;2023-04-24T16:51:08;100398.25;;;16.70;47.73
50650;BME280;36621;60.058;30.346;2023-04-24T16:58:44;100420.13;;;16.57;48.25
50650;BME280;36621;60.058;30.346;2023-04-24T17:06:18;100421.25;;;16.56;48.95
50650;BME280;36621;60.058;30.346;2023-04-24T17:13:51;100430.78;;;16.41;48.29
50650;BME280;36621;60.058;30.346;2023-04-24T17:21:23;100358.50;;;15.87;48.48
50650;BME280;36621;60.058;30.346;2023-04-24T17:28:56;100440.66;;;16.34;48.00
50650;BME280;36621;60.058;30.346;2023-04-24T17:36:29;100444.63;;;16.19;48.24
50650;BME280;36621;60.058;30.346;2023-04-24T17:44:02;100431.22;;;15.94;48.37
50650;BME280;36621;60.058;30.346;2023-04-24T17:51:34;100425.91;;;15.75;49.13
50650;BME280;36621;60.058;30.346;2023-04-24T17:59:10;100467.56;;;16.05;48.42
50650;BME280;36621;60.058;30.346;2023-04-24T18:06:42;100433.56;;;15.78;49.90
50650;BME280;36621;60.058;30.346;2023-04-24T18:14:15;100456.31;;;15.93;49.81
50650;BME280;36621;60.058;30.346;2023-04-24T18:21:48;100447.63;;;15.77;50.25
50650;BME280;36621;60.058;30.346;2023-04-24T18:29:54;100353.44;;;15.26;48.27
50650;BME280;36621;60.058;30.346;2023-04-24T19:25:44;100431.94;;;15.09;53.24
50650;BME280;36621;60.058;30.346;2023-04-24T19:33:16;100451.06;;;15.15;52.30
50650;BME280;36621;60.058;30.346;2023-04-24T19:40:49;100456.59;;;15.37;52.33
50650;BME280;36621;60.058;30.346;2023-04-24T19:48:24;100437.06;;;15.25;51.18
50650;BME280;36621;60.058;30.346;2023-04-24T19:55:58;100466.09;;;15.31;50.84
50650;BME280;36621;60.058;30.346;2023-04-24T20:03:39;100462.78;;;15.43;51.07
50650;BME280;36621;60.058;30.346;2023-04-24T20:11:16;100487.03;;;15.41;50.76
50650;BME280;36621;60.058;30.346;2023-04-24T20:18:59;100507.44;;;15.40;50.15
50650;BME280;36621;60.058;30.346;2023-04-24T20:26:34;100490.94;;;15.26;50.07
